sensor_id;sensor_type;location;lat;lon;timestamp;temperature;humidity
56861;DHT22;42744;51.094;3.490;2022-10-23T00:03:45;13.20;99.90
56861;DHT22;42744;51.094;3.490;2022-10-23T00:06:12;13.20;99.90
56861;DHT22;42744;51.094;3.490;2022-10-23T00:08:39;13.20;99.90
56861;DHT22;42744;51.094;3.490;2022-10-23T00:11:11;13.20;99.90
56861;DHT22;42744;51.094;3.490;2022-10-23T00:13:38;13.30;99.90
56861;DHT22;42744;51.094;3.490;2022-10-23T00:16:04;13.30;99.90
56861;DHT22;42744;51.094;3.490;2022-10-23T00:18:30;13.30;99.90
56861;DHT22;42744;51.094;3.490;2022-10-23T00:20:56;13.30;99.90
56861;DHT22;42744;51.094;3.490;2022-10-23T00:23:22;13.30;99.90
56861;DHT22;42744;51.094;3.490;2022-10-23T00:25:48;13.30;99.90
56861;DHT22;42744;51.094;3.490;2022-10-23T00:28:14;13.40;99.90
56861;DHT22;42744;51.094;3.490;2022-10-23T00:30:40;13.40;99.90
56861;DHT22;42744;51.094;3.490;2022-10-23T00:33:07;13.40;99.90
56861;DHT22;42744;51.094;3.490;2022-10-23T00:35:33;13.40;99.90
56861;DHT22;42744;51.094;3.490;2022-10-23T00:37:59;13.50;99.90
56861;DHT22;42744;51.094;3.490;2022-10-23T00:40:26;13.50;99.90
56861;DHT22;42744;51.094;3.490;2022-10-23T00:42:52;13.50;99.90
56861;DHT22;42744;51.094;3.490;2022-10-23T00:45:26;13.50;99.90
56861;DHT22;42744;51.094;3.490;2022-10-23T00:47:53;13.50;99.90
56861;DHT22;42744;51.094;3.490;2022-10-23T00:50:22;13.50;99.90
56861;DHT22;42744;51.094;3.490;2022-10-23T00:52:51;13.50;99.90
56861;DHT22;42744;51.094;3.490;2022-10-23T00:55:20;13.50;99.90
56861;DHT22;42744;51.094;3.490;2022-10-23T00:57:48;13.50;99.90
56861;DHT22;42744;51.094;3.490;2022-10-23T01:00:23;13.50;99.90
56861;DHT22;42744;51.094;3.490;2022-10-23T01:02:50;13.50;99.90
56861;DHT22;42744;51.094;3.490;2022-10-23T01:05:18;13.40;99.90
56861;DHT22;42744;51.094;3.490;2022-10-23T01:08:01;13.40;99.90
56861;DHT22;42744;51.094;3.490;2022-10-23T01:10:42;13.40;99.90
56861;DHT22;42744;51.094;3.490;2022-10-23T01:24:06;13.20;99.90
56861;DHT22;42744;51.094;3.490;2022-10-23T01:30:05;13.20;99.90
56861;DHT22;42744;51.094;3.490;2022-10-23T01:35:26;13.10;99.90
56861;DHT22;42744;51.094;3.490;2022-10-23T01:40:36;13.20;99.90
56861;DHT22;42744;51.094;3.490;2022-10-23T01:43:12;13.10;99.90
56861;DHT22;42744;51.094;3.490;2022-10-23T01:45:54;13.10;99.90
56861;DHT22;42744;51.094;3.490;2022-10-23T01:48:25;13.10;99.90
56861;DHT22;42744;51.094;3.490;2022-10-23T01:50:58;13.10;99.90
56861;DHT22;42744;51.094;3.490;2022-10-23T01:53:28;13.10;99.90
56861;DHT22;42744;51.094;3.490;2022-10-23T01:55:58;13.10;99.90
56861;DHT22;42744;51.094;3.490;2022-10-23T01:58:27;13.00;99.90
56861;DHT22;42744;51.094;3.490;2022-10-23T02:00:57;13.00;99.90
56861;DHT22;42744;51.094;3.490;2022-10-23T02:03:27;13.00;99.90
56861;DHT22;42744;51.094;3.490;2022-10-23T02:05:54;13.00;99.90
56861;DHT22;42744;51.094;3.490;2022-10-23T02:08:20;13.00;99.90
56861;DHT22;42744;51.094;3.490;2022-10-23T02:10:59;13.00;99.90
56861;DHT22;42744;51.094;3.490;2022-10-23T02:22:33;13.00;99.90
56861;DHT22;42744;51.094;3.490;2022-10-23T02:25:15;13.00;99.90
56861;DHT22;42744;51.094;3.490;2022-10-23T02:27:51;13.00;99.90
56861;DHT22;42744;51.094;3.490;2022-10-23T02:30:19;13.00;99.90
56861;DHT22;42744;51.094;3.490;2022-10-23T02:32:51;13.00;99.90
56861;DHT22;42744;51.094;3.490;2022-10-23T02:35:19;13.00;99.90
56861;DHT22;42744;51.094;3.490;2022-10-23T02:37:58;13.00;99.90
56861;DHT22;42744;51.094;3.490;2022-10-23T02:40:34;13.10;99.90
56861;DHT22;42744;51.094;3.490;2022-10-23T02:43:37;13.10;99.90
56861;DHT22;42744;51.094;3.490;2022-10-23T02:49:55;13.20;99.90
56861;DHT22;42744;51.094;3.490;2022-10-23T02:58:33;13.30;99.90
56861;DHT22;42744;51.094;3.490;2022-10-23T03:01:09;13.30;99.90
56861;DHT22;42744;51.094;3.490;2022-10-23T03:03:43;13.30;99.90
56861;DHT22;42744;51.094;3.490;2022-10-23T03:06:11;13.30;99.90
56861;DHT22;42744;51.094;3.490;2022-10-23T03:09:04;13.30;99.90
56861;DHT22;42744;51.094;3.490;2022-10-23T03:11:28;13.30;99.90
56861;DHT22;42744;51.094;3.490;2022-10-23T03:13:55;13.20;99.90
56861;DHT22;42744;51.094;3.490;2022-10-23T03:16:21;13.20;99.90
56861;DHT22;42744;51.094;3.490;2022-10-23T03:18:49;13.20;99.90
56861;DHT22;42744;51.094;3.490;2022-10-23T03:21:14;13.20;99.90
56861;DHT22;42744;51.094;3.490;2022-10-23T03:23:40;13.20;99.90
56861;DHT22;42744;51.094;3.490;2022-10-23T03:26:07;13.20;99.90
56861;DHT22;42744;51.094;3.490;2022-10-23T03:28:33;13.20;99.90
56861;DHT22;42744;51.094;3.490;2022-10-23T03:31:02;13.20;99.90
56861;DHT22;42744;51.094;3.490;2022-10-23T03:33:30;13.20;99.90
56861;DHT22;42744;51.094;3.490;2022-10-23T03:35:58;13.20;99.90
56861;DHT22;42744;51.094;3.490;2022-10-23T03:38:23;13.20;99.90
56861;DHT22;42744;51.094;3.490;2022-10-23T03:40:50;13.20;99.90
56861;DHT22;42744;51.094;3.490;2022-10-23T03:43:15;13.20;99.90
56861;DHT22;42744;51.094;3.490;2022-10-23T03:45:42;13.30;99.90
56861;DHT22;42744;51.094;3.490;2022-10-23T03:48:22;13.30;99.90
56861;DHT22;42744;51.094;3.490;2022-10-23T03:50:50;13.40;99.90
56861;DHT22;42744;51.094;3.490;2022-10-23T03:53:16;13.40;99.90
56861;DHT22;42744;51.094;3.490;2022-10-23T03:55:43;13.40;99.90
56861;DHT22;42744;51.094;3.490;2022-10-23T03:58:10;13.40;99.90
56861;DHT22;42744;51.094;3.490;2022-10-23T04:00:36;13.40;99.90
56861;DHT22;42744;51.094;3.490;2022-10-23T04:03:02;13.40;99.90
56861;DHT22;42744;51.094;3.490;2022-10-23T04:05:28;13.40;99.90
56861;DHT22;42744;51.094;3.490;2022-10-23T04:07:54;13.50;99.90
56861;DHT22;42744;51.094;3.490;2022-10-23T04:10:21;13.50;99.90
56861;DHT22;42744;51.094;3.490;2022-10-23T04:12:47;13.50;99.90
56861;DHT22;42744;51.094;3.490;2022-10-23T04:15:13;13.50;99.90
56861;DHT22;42744;51.094;3.490;2022-10-23T04:17:40;13.50;99.90
56861;DHT22;42744;51.094;3.490;2022-10-23T04:20:06;13.50;99.90
56861;DHT22;42744;51.094;3.490;2022-10-23T04:22:32;13.50;99.90
56861;DHT22;42744;51.094;3.490;2022-10-23T04:24:59;13.40;99.90
56861;DHT22;42744;51.094;3.490;2022-10-23T04:27:25;13.50;99.90
56861;DHT22;42744;51.094;3.490;2022-10-23T04:29:51;13.50;99.90
56861;DHT22;42744;51.094;3.490;2022-10-23T04:32:18;13.50;99.90
56861;DHT22;42744;51.094;3.490;2022-10-23T04:34:44;13.50;99.90
56861;DHT22;42744;51.094;3.490;2022-10-23T04:37:10;13.50;99.90
56861;DHT22;42744;51.094;3.490;2022-10-23T04:39:37;13.60;99.90
56861;DHT22;42744;51.094;3.490;2022-10-23T04:42:03;13.60;99.90
56861;DHT22;42744;51.094;3.490;2022-10-23T04:44:29;13.60;99.90
56861;DHT22;42744;51.094;3.490;2022-10-23T04:46:55;13.70;99.90
56861;DHT22;42744;51.094;3.490;2022-10-23T04:49:22;13.70;99.90
56861;DHT22;42744;51.094;3.490;2022-10-23T04:51:48;13.70;99.90
56861;DHT22;42744;51.094;3.490;2022-10-23T04:54:15;13.70;99.90
56861;DHT22;42744;51.094;3.490;2022-10-23T04:56:42;13.70;99.90
56861;DHT22;42744;51.094;3.490;2022-10-23T04:59:08;13.60;99.90
56861;DHT22;42744;51.094;3.490;2022-10-23T05:01:35;13.60;99.90
56861;DHT22;42744;51.094;3.490;2022-10-23T05:04:02;13.60;99.90
56861;DHT22;42744;51.094;3.490;2022-10-23T05:06:30;13.50;99.90
56861;DHT22;42744;51.094;3.490;2022-10-23T05:08:57;13.50;99.90
56861;DHT22;42744;51.094;3.490;2022-10-23T05:11:25;13.50;99.90
56861;DHT22;42744;51.094;3.490;2022-10-23T05:13:51;13.40;99.90
56861;DHT22;42744;51.094;3.490;2022-10-23T05:16:47;13.40;99.90
56861;DHT22;42744;51.094;3.490;2022-10-23T05:19:19;13.40;99.90
56861;DHT22;42744;51.094;3.490;2022-10-23T05:21:48;13.30;99.90
56861;DHT22;42744;51.094;3.490;2022-10-23T05:24:23;13.30;99.90
56861;DHT22;42744;51.094;3.490;2022-10-23T05:26:53;13.30;99.90
56861;DHT22;42744;51.094;3.490;2022-10-23T05:29:20;13.30;99.90
56861;DHT22;42744;51.094;3.490;2022-10-23T05:31:48;13.30;99.90
56861;DHT22;42744;51.094;3.490;2022-10-23T05:34:18;13.30;99.90
56861;DHT22;42744;51.094;3.490;2022-10-23T05:36:45;13.30;99.90
56861;DHT22;42744;51.094;3.490;2022-10-23T05:39:12;13.20;99.90
56861;DHT22;42744;51.094;3.490;2022-10-23T05:41:38;13.30;99.90
56861;DHT22;42744;51.094;3.490;2022-10-23T05:44:05;13.30;99.90
56861;DHT22;42744;51.094;3.490;2022-10-23T05:46:32;13.20;99.90
56861;DHT22;42744;51.094;3.490;2022-10-23T05:48:58;13.30;99.90
56861;DHT22;42744;51.094;3.490;2022-10-23T05:51:24;13.30;99.90
56861;DHT22;42744;51.094;3.490;2022-10-23T05:53:53;13.30;99.90
56861;DHT22;42744;51.094;3.490;2022-10-23T05:56:19;13.30;99.90
56861;DHT22;42744;51.094;3.490;2022-10-23T05:58:45;13.30;99.90
56861;DHT22;42744;51.094;3.490;2022-10-23T06:01:13;13.30;99.90
56861;DHT22;42744;51.094;3.490;2022-10-23T06:03:40;13.30;99.90
56861;DHT22;42744;51.094;3.490;2022-10-23T06:06:07;13.30;99.90
56861;DHT22;42744;51.094;3.490;2022-10-23T06:08:33;13.30;99.90
56861;DHT22;42744;51.094;3.490;2022-10-23T06:11:13;13.40;99.90
56861;DHT22;42744;51.094;3.490;2022-10-23T06:13:44;13.40;99.90
56861;DHT22;42744;51.094;3.490;2022-10-23T06:16:20;13.40;99.90
56861;DHT22;42744;51.094;3.490;2022-10-23T06:18:47;13.40;99.90
56861;DHT22;42744;51.094;3.490;2022-10-23T06:21:14;13.40;99.90
56861;DHT22;42744;51.094;3.490;2022-10-23T06:23:44;13.40;99.90
56861;DHT22;42744;51.094;3.490;2022-10-23T06:26:14;13.40;99.90
56861;DHT22;42744;51.094;3.490;2022-10-23T06:28:43;13.40;99.90
56861;DHT22;42744;51.094;3.490;2022-10-23T06:31:11;13.40;99.90
56861;DHT22;42744;51.094;3.490;2022-10-23T06:33:38;13.40;99.90
56861;DHT22;42744;51.094;3.490;2022-10-23T06:36:05;13.40;99.90
56861;DHT22;42744;51.094;3.490;2022-10-23T06:38:33;13.40;99.90
56861;DHT22;42744;51.094;3.490;2022-10-23T06:41:03;13.50;99.90
56861;DHT22;42744;51.094;3.490;2022-10-23T06:43:31;13.50;99.90
56861;DHT22;42744;51.094;3.490;2022-10-23T06:46:02;13.50;99.90
56861;DHT22;42744;51.094;3.490;2022-10-23T06:48:33;13.50;99.90
56861;DHT22;42744;51.094;3.490;2022-10-23T06:51:07;13.50;99.90
56861;DHT22;42744;51.094;3.490;2022-10-23T06:53:34;13.50;99.90
56861;DHT22;42744;51.094;3.490;2022-10-23T06:56:04;13.50;99.90
56861;DHT22;42744;51.094;3.490;2022-10-23T06:58:34;13.60;99.90
56861;DHT22;42744;51.094;3.490;2022-10-23T07:01:02;13.70;99.90
56861;DHT22;42744;51.094;3.490;2022-10-23T07:03:28;13.70;99.90
56861;DHT22;42744;51.094;3.490;2022-10-23T07:05:54;13.70;99.90
56861;DHT22;42744;51.094;3.490;2022-10-23T07:08:20;13.80;99.90
56861;DHT22;42744;51.094;3.490;2022-10-23T07:10:48;13.90;99.90
56861;DHT22;42744;51.094;3.490;2022-10-23T07:13:17;13.90;99.90
56861;DHT22;42744;51.094;3.490;2022-10-23T07:15:44;13.90;99.90
56861;DHT22;42744;51.094;3.490;2022-10-23T07:18:10;14.00;99.90
56861;DHT22;42744;51.094;3.490;2022-10-23T07:20:42;14.00;99.90
56861;DHT22;42744;51.094;3.490;2022-10-23T07:23:10;14.10;99.90
56861;DHT22;42744;51.094;3.490;2022-10-23T07:25:37;14.10;99.90
56861;DHT22;42744;51.094;3.490;2022-10-23T07:28:05;14.20;99.90
56861;DHT22;42744;51.094;3.490;2022-10-23T07:30:31;14.20;99.90
56861;DHT22;42744;51.094;3.490;2022-10-23T07:32:58;14.20;99.90
56861;DHT22;42744;51.094;3.490;2022-10-23T07:35:26;14.30;99.90
56861;DHT22;42744;51.094;3.490;2022-10-23T07:37:53;14.30;99.90
56861;DHT22;42744;51.094;3.490;2022-10-23T07:40:19;14.40;99.90
56861;DHT22;42744;51.094;3.490;2022-10-23T07:42:47;14.40;99.90
56861;DHT22;42744;51.094;3.490;2022-10-23T07:45:13;14.50;99.90
56861;DHT22;42744;51.094;3.490;2022-10-23T07:47:40;14.50;99.90
56861;DHT22;42744;51.094;3.490;2022-10-23T07:50:07;14.50;99.90
56861;DHT22;42744;51.094;3.490;2022-10-23T07:52:34;14.60;99.90
56861;DHT22;42744;51.094;3.490;2022-10-23T07:55:01;14.70;99.90
56861;DHT22;42744;51.094;3.490;2022-10-23T07:57:28;14.70;99.90
56861;DHT22;42744;51.094;3.490;2022-10-23T07:59:54;14.70;99.90
56861;DHT22;42744;51.094;3.490;2022-10-23T08:02:20;14.80;99.90
56861;DHT22;42744;51.094;3.490;2022-10-23T08:04:50;14.80;99.90
56861;DHT22;42744;51.094;3.490;2022-10-23T08:07:17;14.80;99.90
56861;DHT22;42744;51.094;3.490;2022-10-23T08:09:44;14.80;99.90
56861;DHT22;42744;51.094;3.490;2022-10-23T08:12:10;14.80;99.90
56861;DHT22;42744;51.094;3.490;2022-10-23T08:14:37;14.80;99.90
56861;DHT22;42744;51.094;3.490;2022-10-23T08:17:03;14.90;99.90
56861;DHT22;42744;51.094;3.490;2022-10-23T08:19:33;14.90;99.90
56861;DHT22;42744;51.094;3.490;2022-10-23T08:22:00;14.90;99.90
56861;DHT22;42744;51.094;3.490;2022-10-23T08:24:26;14.80;99.90
56861;DHT22;42744;51.094;3.490;2022-10-23T08:26:52;14.90;99.90
56861;DHT22;42744;51.094;3.490;2022-10-23T08:29:19;14.90;99.90
56861;DHT22;42744;51.094;3.490;2022-10-23T08:31:46;14.90;99.90
56861;DHT22;42744;51.094;3.490;2022-10-23T08:34:13;14.90;99.90
56861;DHT22;42744;51.094;3.490;2022-10-23T08:36:41;14.90;99.90
56861;DHT22;42744;51.094;3.490;2022-10-23T08:39:08;15.00;99.90
56861;DHT22;42744;51.094;3.490;2022-10-23T08:41:41;15.00;99.90
56861;DHT22;42744;51.094;3.490;2022-10-23T08:46:49;15.00;99.90
56861;DHT22;42744;51.094;3.490;2022-10-23T08:52:27;15.00;99.90
56861;DHT22;42744;51.094;3.490;2022-10-23T08:55:17;15.00;99.90
56861;DHT22;42744;51.094;3.490;2022-10-23T08:57:59;15.10;99.90
56861;DHT22;42744;51.094;3.490;2022-10-23T09:00:26;15.10;99.90
56861;DHT22;42744;51.094;3.490;2022-10-23T09:02:55;15.10;99.90
56861;DHT22;42744;51.094;3.490;2022-10-23T09:05:49;15.10;99.90
56861;DHT22;42744;51.094;3.490;2022-10-23T09:08:53;15.10;99.90
56861;DHT22;42744;51.094;3.490;2022-10-23T09:11:41;15.10;99.90
56861;DHT22;42744;51.094;3.490;2022-10-23T09:14:29;15.10;99.90
56861;DHT22;42744;51.094;3.490;2022-10-23T09:19:30;15.20;99.90
56861;DHT22;42744;51.094;3.490;2022-10-23T09:21:57;15.20;99.90
56861;DHT22;42744;51.094;3.490;2022-10-23T09:24:25;15.30;99.90
56861;DHT22;42744;51.094;3.490;2022-10-23T09:26:56;15.30;99.90
56861;DHT22;42744;51.094;3.490;2022-10-23T09:29:31;15.40;99.90
56861;DHT22;42744;51.094;3.490;2022-10-23T09:31:59;15.40;99.90
56861;DHT22;42744;51.094;3.490;2022-10-23T09:34:28;15.50;99.90
56861;DHT22;42744;51.094;3.490;2022-10-23T09:36:58;15.50;99.90
56861;DHT22;42744;51.094;3.490;2022-10-23T09:39:33;15.60;99.90
56861;DHT22;42744;51.094;3.490;2022-10-23T09:42:00;15.70;99.90
56861;DHT22;42744;51.094;3.490;2022-10-23T09:44:31;15.70;99.90
56861;DHT22;42744;51.094;3.490;2022-10-23T09:47:07;15.70;99.90
56861;DHT22;42744;51.094;3.490;2022-10-23T09:49:33;15.80;99.90
56861;DHT22;42744;51.094;3.490;2022-10-23T09:52:18;15.80;99.90
56861;DHT22;42744;51.094;3.490;2022-10-23T09:55:19;15.90;99.90
56861;DHT22;42744;51.094;3.490;2022-10-23T09:57:46;15.90;99.90
56861;DHT22;42744;51.094;3.490;2022-10-23T10:02:41;16.00;99.90
56861;DHT22;42744;51.094;3.490;2022-10-23T10:05:23;16.00;99.90
56861;DHT22;42744;51.094;3.490;2022-10-23T10:13:38;16.20;99.90
56861;DHT22;42744;51.094;3.490;2022-10-23T10:25:01;16.50;99.90
56861;DHT22;42744;51.094;3.490;2022-10-23T10:27:46;16.60;99.90
56861;DHT22;42744;51.094;3.490;2022-10-23T10:33:05;16.70;99.90
56861;DHT22;42744;51.094;3.490;2022-10-23T10:44:08;16.90;99.90
56861;DHT22;42744;51.094;3.490;2022-10-23T10:52:21;17.00;99.90
56861;DHT22;42744;51.094;3.490;2022-10-23T10:57:32;17.10;99.90
56861;DHT22;42744;51.094;3.490;2022-10-23T11:00:11;17.20;99.90
56861;DHT22;42744;51.094;3.490;2022-10-23T11:02:45;17.30;99.90
56861;DHT22;42744;51.094;3.490;2022-10-23T11:10:39;17.50;99.90
56861;DHT22;42744;51.094;3.490;2022-10-23T11:13:25;17.60;99.90
56861;DHT22;42744;51.094;3.490;2022-10-23T11:16:27;17.70;99.90
56861;DHT22;42744;51.094;3.490;2022-10-23T11:19:00;17.80;99.90
56861;DHT22;42744;51.094;3.490;2022-10-23T11:21:34;17.90;99.90
56861;DHT22;42744;51.094;3.490;2022-10-23T11:27:14;18.20;99.90
56861;DHT22;42744;51.094;3.490;2022-10-23T11:38:35;18.50;99.90
56861;DHT22;42744;51.094;3.490;2022-10-23T11:41:22;18.60;99.90
56861;DHT22;42744;51.094;3.490;2022-10-23T11:43:59;18.70;99.90
56861;DHT22;42744;51.094;3.490;2022-10-23T11:46:37;18.70;99.90
56861;DHT22;42744;51.094;3.490;2022-10-23T11:49:17;18.80;99.90
56861;DHT22;42744;51.094;3.490;2022-10-23T11:51:44;18.80;99.90
56861;DHT22;42744;51.094;3.490;2022-10-23T11:56:37;18.90;99.90
56861;DHT22;42744;51.094;3.490;2022-10-23T11:59:33;19.00;99.90
56861;DHT22;42744;51.094;3.490;2022-10-23T12:04:47;19.30;99.90
56861;DHT22;42744;51.094;3.490;2022-10-23T12:17:34;19.40;99.90
56861;DHT22;42744;51.094;3.490;2022-10-23T12:28:48;20.00;99.90
56861;DHT22;42744;51.094;3.490;2022-10-23T12:31:20;20.00;99.90
56861;DHT22;42744;51.094;3.490;2022-10-23T12:39:42;20.60;99.90
56861;DHT22;42744;51.094;3.490;2022-10-23T12:42:26;20.90;99.90
56861;DHT22;42744;51.094;3.490;2022-10-23T12:47:38;20.90;99.90
56861;DHT22;42744;51.094;3.490;2022-10-23T12:50:16;20.90;99.90
56861;DHT22;42744;51.094;3.490;2022-10-23T12:52:54;20.90;99.90
56861;DHT22;42744;51.094;3.490;2022-10-23T12:55:22;20.90;99.90
56861;DHT22;42744;51.094;3.490;2022-10-23T12:57:49;20.80;99.90
56861;DHT22;42744;51.094;3.490;2022-10-23T13:00:21;20.60;99.90
56861;DHT22;42744;51.094;3.490;2022-10-23T13:03:01;20.50;99.90
56861;DHT22;42744;51.094;3.490;2022-10-23T13:05:28;20.50;99.90
56861;DHT22;42744;51.094;3.490;2022-10-23T13:07:56;20.50;99.90
56861;DHT22;42744;51.094;3.490;2022-10-23T13:10:24;20.50;99.90
56861;DHT22;42744;51.094;3.490;2022-10-23T13:12:54;20.80;99.90
56861;DHT22;42744;51.094;3.490;2022-10-23T13:15:22;21.00;99.90
56861;DHT22;42744;51.094;3.490;2022-10-23T13:20:26;20.80;99.90
56861;DHT22;42744;51.094;3.490;2022-10-23T13:22:57;20.70;99.90
56861;DHT22;42744;51.094;3.490;2022-10-23T13:25:30;20.70;99.90
56861;DHT22;42744;51.094;3.490;2022-10-23T13:28:23;20.60;99.90
56861;DHT22;42744;51.094;3.490;2022-10-23T13:31:05;20.50;99.90
56861;DHT22;42744;51.094;3.490;2022-10-23T13:41:25;20.10;99.90
56861;DHT22;42744;51.094;3.490;2022-10-23T13:43:51;20.10;99.90
56861;DHT22;42744;51.094;3.490;2022-10-23T13:46:19;20.10;99.90
56861;DHT22;42744;51.094;3.490;2022-10-23T13:48:46;20.00;99.90
56861;DHT22;42744;51.094;3.490;2022-10-23T13:51:19;20.00;99.90
56861;DHT22;42744;51.094;3.490;2022-10-23T13:53:46;19.90;99.90
56861;DHT22;42744;51.094;3.490;2022-10-23T13:56:14;19.90;99.90
56861;DHT22;42744;51.094;3.490;2022-10-23T13:58:40;19.90;99.90
56861;DHT22;42744;51.094;3.490;2022-10-23T14:01:21;19.80;99.90
56861;DHT22;42744;51.094;3.490;2022-10-23T14:03:52;19.80;99.90
56861;DHT22;42744;51.094;3.490;2022-10-23T14:06:18;19.70;99.90
56861;DHT22;42744;51.094;3.490;2022-10-23T14:08:44;19.70;99.90
56861;DHT22;42744;51.094;3.490;2022-10-23T14:11:11;19.70;99.90
56861;DHT22;42744;51.094;3.490;2022-10-23T14:13:38;19.60;99.90
56861;DHT22;42744;51.094;3.490;2022-10-23T14:16:04;19.60;99.90
56861;DHT22;42744;51.094;3.490;2022-10-23T14:18:31;19.60;99.90
56861;DHT22;42744;51.094;3.490;2022-10-23T14:21:04;19.50;99.90
56861;DHT22;42744;51.094;3.490;2022-10-23T14:23:31;19.50;99.90
56861;DHT22;42744;51.094;3.490;2022-10-23T14:26:05;19.50;99.90
56861;DHT22;42744;51.094;3.490;2022-10-23T14:28:31;19.50;99.90
56861;DHT22;42744;51.094;3.490;2022-10-23T14:31:02;19.40;99.90
56861;DHT22;42744;51.094;3.490;2022-10-23T14:33:28;19.40;99.90
56861;DHT22;42744;51.094;3.490;2022-10-23T14:35:54;19.40;99.90
56861;DHT22;42744;51.094;3.490;2022-10-23T14:38:20;19.40;99.90
56861;DHT22;42744;51.094;3.490;2022-10-23T14:40:46;19.40;99.90
56861;DHT22;42744;51.094;3.490;2022-10-23T14:43:12;19.30;99.90
56861;DHT22;42744;51.094;3.490;2022-10-23T14:45:38;19.30;99.90
56861;DHT22;42744;51.094;3.490;2022-10-23T14:48:04;19.30;99.90
56861;DHT22;42744;51.094;3.490;2022-10-23T14:50:31;19.30;99.90
56861;DHT22;42744;51.094;3.490;2022-10-23T14:52:58;19.30;99.90
56861;DHT22;42744;51.094;3.490;2022-10-23T14:55:24;19.30;99.90
56861;DHT22;42744;51.094;3.490;2022-10-23T14:57:54;19.30;99.90
56861;DHT22;42744;51.094;3.490;2022-10-23T15:00:21;19.30;99.90
56861;DHT22;42744;51.094;3.490;2022-10-23T15:02:47;19.30;99.90
56861;DHT22;42744;51.094;3.490;2022-10-23T15:05:14;19.30;99.90
56861;DHT22;42744;51.094;3.490;2022-10-23T15:07:41;19.30;99.90
56861;DHT22;42744;51.094;3.490;2022-10-23T15:10:07;19.40;99.90
56861;DHT22;42744;51.094;3.490;2022-10-23T15:12:34;19.40;99.90
56861;DHT22;42744;51.094;3.490;2022-10-23T15:15:01;19.40;99.90
56861;DHT22;42744;51.094;3.490;2022-10-23T15:17:27;19.40;99.90
56861;DHT22;42744;51.094;3.490;2022-10-23T15:19:53;19.40;99.90
56861;DHT22;42744;51.094;3.490;2022-10-23T15:22:19;19.40;99.90
56861;DHT22;42744;51.094;3.490;2022-10-23T15:24:47;19.40;99.90
56861;DHT22;42744;51.094;3.490;2022-10-23T15:27:13;19.50;99.90
56861;DHT22;42744;51.094;3.490;2022-10-23T15:29:39;19.40;99.90
56861;DHT22;42744;51.094;3.490;2022-10-23T15:32:05;19.40;99.90
56861;DHT22;42744;51.094;3.490;2022-10-23T15:34:33;19.40;99.90
56861;DHT22;42744;51.094;3.490;2022-10-23T15:37:00;19.30;99.90
56861;DHT22;42744;51.094;3.490;2022-10-23T15:39:29;19.30;99.90
56861;DHT22;42744;51.094;3.490;2022-10-23T15:41:59;19.30;99.90
56861;DHT22;42744;51.094;3.490;2022-10-23T15:44:28;19.30;99.90
56861;DHT22;42744;51.094;3.490;2022-10-23T15:46:54;19.30;99.90
56861;DHT22;42744;51.094;3.490;2022-10-23T15:49:22;19.30;99.90
56861;DHT22;42744;51.094;3.490;2022-10-23T15:51:49;19.30;99.90
56861;DHT22;42744;51.094;3.490;2022-10-23T15:54:17;19.20;99.90
56861;DHT22;42744;51.094;3.490;2022-10-23T15:56:49;19.20;99.90
56861;DHT22;42744;51.094;3.490;2022-10-23T15:59:17;19.10;99.90
56861;DHT22;42744;51.094;3.490;2022-10-23T16:01:43;19.00;99.90
56861;DHT22;42744;51.094;3.490;2022-10-23T16:04:09;19.00;99.90
56861;DHT22;42744;51.094;3.490;2022-10-23T16:06:36;18.90;99.90
56861;DHT22;42744;51.094;3.490;2022-10-23T16:09:02;18.90;99.90
56861;DHT22;42744;51.094;3.490;2022-10-23T16:11:32;18.90;99.90
56861;DHT22;42744;51.094;3.490;2022-10-23T16:13:59;18.80;99.90
56861;DHT22;42744;51.094;3.490;2022-10-23T16:16:27;18.70;99.90
56861;DHT22;42744;51.094;3.490;2022-10-23T16:18:53;18.60;99.90
56861;DHT22;42744;51.094;3.490;2022-10-23T16:21:21;18.60;99.90
56861;DHT22;42744;51.094;3.490;2022-10-23T16:23:48;18.50;99.90
56861;DHT22;42744;51.094;3.490;2022-10-23T16:26:15;18.50;99.90
56861;DHT22;42744;51.094;3.490;2022-10-23T16:28:41;18.50;99.90
56861;DHT22;42744;51.094;3.490;2022-10-23T16:31:12;18.50;99.90
56861;DHT22;42744;51.094;3.490;2022-10-23T16:33:38;18.50;99.90
56861;DHT22;42744;51.094;3.490;2022-10-23T16:36:06;18.50;99.90
56861;DHT22;42744;51.094;3.490;2022-10-23T16:38:43;18.50;99.90
56861;DHT22;42744;51.094;3.490;2022-10-23T16:41:09;18.50;99.90
56861;DHT22;42744;51.094;3.490;2022-10-23T16:43:35;18.50;99.90
56861;DHT22;42744;51.094;3.490;2022-10-23T16:46:08;18.40;99.90
56861;DHT22;42744;51.094;3.490;2022-10-23T16:48:36;18.40;99.90
56861;DHT22;42744;51.094;3.490;2022-10-23T16:51:11;18.40;99.90
56861;DHT22;42744;51.094;3.490;2022-10-23T16:53:38;18.30;99.90
56861;DHT22;42744;51.094;3.490;2022-10-23T16:56:06;18.30;99.90
56861;DHT22;42744;51.094;3.490;2022-10-23T16:58:36;18.20;99.90
56861;DHT22;42744;51.094;3.490;2022-10-23T17:01:12;18.10;99.90
56861;DHT22;42744;51.094;3.490;2022-10-23T17:03:41;18.10;99.90
56861;DHT22;42744;51.094;3.490;2022-10-23T17:06:11;18.00;99.90
56861;DHT22;42744;51.094;3.490;2022-10-23T17:08:39;17.90;99.90
56861;DHT22;42744;51.094;3.490;2022-10-23T17:11:17;17.90;99.90
56861;DHT22;42744;51.094;3.490;2022-10-23T17:13:46;17.80;99.90
56861;DHT22;42744;51.094;3.490;2022-10-23T17:16:16;17.80;99.90
56861;DHT22;42744;51.094;3.490;2022-10-23T17:18:42;17.80;99.90
56861;DHT22;42744;51.094;3.490;2022-10-23T17:21:09;17.80;99.90
56861;DHT22;42744;51.094;3.490;2022-10-23T17:23:35;17.90;99.90
56861;DHT22;42744;51.094;3.490;2022-10-23T17:26:01;17.90;99.90
56861;DHT22;42744;51.094;3.490;2022-10-23T17:28:29;17.90;99.90
56861;DHT22;42744;51.094;3.490;2022-10-23T17:30:56;18.00;99.90
56861;DHT22;42744;51.094;3.490;2022-10-23T17:33:22;18.00;99.90
56861;DHT22;42744;51.094;3.490;2022-10-23T17:35:48;18.00;99.90
56861;DHT22;42744;51.094;3.490;2022-10-23T17:38:14;18.10;99.90
56861;DHT22;42744;51.094;3.490;2022-10-23T17:40:46;18.20;99.90
56861;DHT22;42744;51.094;3.490;2022-10-23T17:43:15;18.20;99.90
56861;DHT22;42744;51.094;3.490;2022-10-23T17:45:42;18.30;99.90
56861;DHT22;42744;51.094;3.490;2022-10-23T17:48:11;18.30;99.90
56861;DHT22;42744;51.094;3.490;2022-10-23T17:50:37;18.40;99.90
56861;DHT22;42744;51.094;3.490;2022-10-23T17:53:04;18.50;99.90
56861;DHT22;42744;51.094;3.490;2022-10-23T17:55:30;18.50;99.90
56861;DHT22;42744;51.094;3.490;2022-10-23T17:57:56;18.60;99.90
56861;DHT22;42744;51.094;3.490;2022-10-23T18:00:23;18.60;99.90
56861;DHT22;42744;51.094;3.490;2022-10-23T18:02:49;18.60;99.90
56861;DHT22;42744;51.094;3.490;2022-10-23T18:05:15;18.60;99.90
56861;DHT22;42744;51.094;3.490;2022-10-23T18:07:40;18.50;99.90
56861;DHT22;42744;51.094;3.490;2022-10-23T18:10:07;18.50;99.90
56861;DHT22;42744;51.094;3.490;2022-10-23T18:12:33;18.40;99.90